createdAt,value
2023-02-12T00:01:29.320Z,28.90
2023-02-12T00:03:58.520Z,28.92
2023-02-12T00:06:27.412Z,28.75
2023-02-12T00:08:57.143Z,27.83
2023-02-12T00:11:28.526Z,25.67
2023-02-12T00:13:57.911Z,26.73
2023-02-12T00:16:29.123Z,27.77
2023-02-12T00:18:59.172Z,28.50
2023-02-12T00:21:29.070Z,28.33
2023-02-12T00:23:57.574Z,28.30
2023-02-12T00:26:25.532Z,27.55
2023-02-12T00:28:54.397Z,25.98
2023-02-12T00:31:25.971Z,26.27
2023-02-12T00:33:57.492Z,26.38
2023-02-12T00:36:28.994Z,26.08
2023-02-12T00:38:57.608Z,25.42
2023-02-12T00:41:26.552Z,26.60
2023-02-12T00:43:55.038Z,27.83
2023-02-12T00:46:23.162Z,25.33
2023-02-12T00:48:51.460Z,27.15
2023-02-12T00:51:21.329Z,26.83
2023-02-12T00:53:49.677Z,29.10
2023-02-12T00:56:17.723Z,30.33
2023-02-12T00:58:45.921Z,30.30
2023-02-12T01:01:14.104Z,32.53
2023-02-12T01:03:42.374Z,32.45
2023-02-12T01:06:10.224Z,32.55
2023-02-12T01:08:38.522Z,36.47
2023-02-12T01:11:07.000Z,33.55
2023-02-12T01:13:35.782Z,32.75
2023-02-12T01:16:14.560Z,29.80
2023-02-12T01:18:42.988Z,30.90
2023-02-12T01:21:18.056Z,31.90
2023-02-12T01:23:47.228Z,32.67
2023-02-12T01:26:17.039Z,33.25
2023-02-12T01:28:49.929Z,34.00
2023-02-12T01:31:21.086Z,36.88
2023-02-12T01:33:54.693Z,35.50
2023-02-12T01:36:23.380Z,36.97
2023-02-12T01:38:52.076Z,36.40
2023-02-12T01:41:23.862Z,39.10
2023-02-12T01:44:31.409Z,43.45
2023-02-12T01:47:05.510Z,43.50
2023-02-12T01:49:33.920Z,40.92
2023-02-12T01:52:07.404Z,45.75
2023-02-12T01:57:06.912Z,45.65
2023-02-12T01:59:38.219Z,46.00
2023-02-12T02:02:06.571Z,45.05
2023-02-12T02:04:48.650Z,44.45
2023-02-12T02:07:16.622Z,46.97
2023-02-12T02:09:45.209Z,44.13
2023-02-12T02:12:31.729Z,41.53
2023-02-12T02:15:02.715Z,41.28
2023-02-12T02:17:39.728Z,39.60
2023-02-12T02:20:23.308Z,39.20
2023-02-12T02:23:04.984Z,39.45
2023-02-12T02:26:03.616Z,37.30
2023-02-12T02:28:59.026Z,34.28
2023-02-12T02:31:41.511Z,36.95
2023-02-12T02:34:34.973Z,36.65
2023-02-12T02:37:17.122Z,36.63
2023-02-12T02:40:00.157Z,33.90
2023-02-12T02:42:56.306Z,31.20
2023-02-12T02:45:47.844Z,34.22
2023-02-12T02:48:40.974Z,31.13
2023-02-12T02:51:14.887Z,33.83
2023-02-12T02:53:48.735Z,30.70
2023-02-12T02:56:20.357Z,33.05
2023-02-12T02:58:59.845Z,31.40
2023-02-12T03:01:44.192Z,29.90
2023-02-12T03:04:41.464Z,30.10
2023-02-12T03:07:24.815Z,27.65
2023-02-12T03:10:22.404Z,26.40
2023-02-12T03:12:57.258Z,28.95
2023-02-12T03:15:42.415Z,26.40
2023-02-12T03:18:21.516Z,27.13
2023-02-12T03:20:55.775Z,26.60
2023-02-12T03:23:28.338Z,27.00
2023-02-12T03:26:09.910Z,28.70
2023-02-12T03:28:39.006Z,26.40
2023-02-12T03:31:36.543Z,29.33
2023-02-12T03:34:23.158Z,26.48
2023-02-12T03:37:12.928Z,25.83
2023-02-12T03:40:02.461Z,26.35
2023-02-12T03:42:34.213Z,24.55
2023-02-12T03:45:20.239Z,25.23
2023-02-12T03:48:00.112Z,24.92
2023-02-12T03:50:38.930Z,25.83
2023-02-12T03:53:07.451Z,24.02
2023-02-12T03:55:40.644Z,25.48
2023-02-12T03:58:13.227Z,24.95
2023-02-12T04:00:41.237Z,25.63
2023-02-12T04:03:10.050Z,25.27
2023-02-12T04:05:38.054Z,26.38
2023-02-12T04:08:09.812Z,26.00
2023-02-12T04:11:02.167Z,26.75
2023-02-12T04:14:03.399Z,23.48
2023-02-12T04:16:38.384Z,25.20
2023-02-12T04:19:10.713Z,25.52
2023-02-12T04:21:45.074Z,23.20
2023-02-12T04:24:42.111Z,25.02
2023-02-12T04:27:20.953Z,24.48
2023-02-12T04:30:21.704Z,25.48
2023-02-12T04:32:56.756Z,26.60
2023-02-12T04:35:35.116Z,25.15
2023-02-12T04:38:15.407Z,25.45
2023-02-12T04:40:44.987Z,24.80
2023-02-12T04:43:12.879Z,24.50
2023-02-12T04:45:41.548Z,24.10
2023-02-12T04:48:09.573Z,22.83
2023-02-12T04:50:43.671Z,24.80
2023-02-12T04:53:11.616Z,24.65
2023-02-12T04:55:39.799Z,24.10
2023-02-12T04:58:07.702Z,23.42
2023-02-12T05:00:36.212Z,24.30
2023-02-12T05:03:04.768Z,25.50
2023-02-12T05:05:32.962Z,23.33
2023-02-12T05:08:00.927Z,24.13
2023-02-12T05:10:29.207Z,24.15
2023-02-12T05:12:57.040Z,25.52
2023-02-12T05:15:25.566Z,23.20
2023-02-12T05:17:53.399Z,23.67
2023-02-12T05:20:21.654Z,25.30
2023-02-12T05:22:53.489Z,24.92
2023-02-12T05:25:21.701Z,23.33
2023-02-12T05:27:49.540Z,22.42
2023-02-12T05:30:17.872Z,26.50
2023-02-12T05:32:46.018Z,23.42
2023-02-12T05:35:14.814Z,23.95
2023-02-12T05:37:42.688Z,25.10
2023-02-12T05:40:11.482Z,23.38
2023-02-12T05:42:39.466Z,23.52
2023-02-12T05:45:08.006Z,26.30
2023-02-12T05:47:35.817Z,27.15
2023-02-12T05:50:04.253Z,28.00
2023-02-12T05:52:32.093Z,26.83
2023-02-12T05:55:00.261Z,28.77
2023-02-12T05:57:28.359Z,27.33
2023-02-12T05:59:56.693Z,28.08
2023-02-12T06:02:24.668Z,28.85
2023-02-12T06:04:52.955Z,26.73
2023-02-12T06:07:20.812Z,26.10
2023-02-12T06:09:49.054Z,27.00
2023-02-12T06:12:17.038Z,27.10
2023-02-12T06:14:45.264Z,29.27
2023-02-12T06:17:13.381Z,27.67
2023-02-12T06:19:41.700Z,26.65
2023-02-12T06:22:09.509Z,27.38
2023-02-12T06:24:37.753Z,29.50
2023-02-12T06:27:05.663Z,28.33
2023-02-12T06:29:34.008Z,26.52
2023-02-12T06:32:02.001Z,26.15
2023-02-12T06:34:30.282Z,27.30
2023-02-12T06:36:58.222Z,28.08
2023-02-12T06:39:26.315Z,25.80
2023-02-12T06:41:54.682Z,27.80
2023-02-12T06:44:22.861Z,26.33
2023-02-12T06:46:50.861Z,25.65
2023-02-12T06:49:19.204Z,27.17
2023-02-12T06:51:47.062Z,26.98
2023-02-12T06:54:18.463Z,26.35
2023-02-12T06:56:46.324Z,24.90
2023-02-12T06:59:16.813Z,27.95
2023-02-12T07:01:45.074Z,26.52
2023-02-12T07:04:13.393Z,25.33
2023-02-12T07:06:41.499Z,26.83
2023-02-12T07:09:09.931Z,26.33
2023-02-12T07:11:38.733Z,28.35
2023-02-12T07:14:08.071Z,26.05
2023-02-12T07:16:36.000Z,27.23
2023-02-12T07:19:04.177Z,27.58
2023-02-12T07:21:32.343Z,29.65
2023-02-12T07:24:00.791Z,29.92
2023-02-12T07:26:29.151Z,30.33
2023-02-12T07:28:58.988Z,28.08
2023-02-12T07:31:27.040Z,27.33
2023-02-12T07:33:57.392Z,29.05
2023-02-12T07:36:27.824Z,30.35
2023-02-12T07:38:57.162Z,30.67
2023-02-12T07:41:28.258Z,32.08
2023-02-12T07:44:04.024Z,28.42
2023-02-12T07:46:35.507Z,31.15
2023-02-12T07:49:05.800Z,30.08
2023-02-12T07:51:35.682Z,28.20
2023-02-12T07:54:04.664Z,29.45
2023-02-12T07:56:35.572Z,26.75
2023-02-12T07:59:10.376Z,27.23
2023-02-12T08:01:41.409Z,28.00
2023-02-12T08:04:15.102Z,26.63
2023-02-12T08:06:45.467Z,25.27
2023-02-12T08:09:17.096Z,24.10
2023-02-12T08:11:45.654Z,26.80
2023-02-12T08:14:16.694Z,26.00
2023-02-12T08:16:46.220Z,25.58
2023-02-12T08:19:19.755Z,25.95
2023-02-12T08:21:54.322Z,25.60
2023-02-12T08:24:23.920Z,23.63
2023-02-12T08:26:52.266Z,26.23
2023-02-12T08:29:31.313Z,22.95
2023-02-12T08:32:04.144Z,23.67
2023-02-12T08:34:35.818Z,25.33
2023-02-12T08:37:06.070Z,26.48
2023-02-12T08:39:34.550Z,32.80
2023-02-12T08:42:02.541Z,34.22
2023-02-12T08:44:30.683Z,35.15
2023-02-12T08:46:58.529Z,38.50
2023-02-12T08:49:29.641Z,34.58
2023-02-12T08:51:59.369Z,34.75
2023-02-12T08:54:29.728Z,32.70
2023-02-12T08:56:59.840Z,31.75
2023-02-12T08:59:28.183Z,30.92
2023-02-12T09:01:56.254Z,30.98
2023-02-12T09:04:26.550Z,34.63
2023-02-12T09:06:55.137Z,33.55
2023-02-12T09:09:23.416Z,36.03
2023-02-12T09:11:51.491Z,38.20
2023-02-12T09:14:24.304Z,36.60
2023-02-12T09:16:54.138Z,36.67
2023-02-12T09:19:22.453Z,33.20
2023-02-12T09:21:56.101Z,32.47
2023-02-12T09:24:28.279Z,34.70
2023-02-12T09:26:57.037Z,33.97
2023-02-12T09:29:25.605Z,35.67
2023-02-12T09:31:53.787Z,32.80
2023-02-12T09:34:22.151Z,31.02
2023-02-12T09:36:50.038Z,31.55
2023-02-12T09:39:18.120Z,30.42
2023-02-12T09:41:55.623Z,30.58
2023-02-12T09:44:51.193Z,29.00
2023-02-12T09:47:34.411Z,27.25
2023-02-12T09:50:02.562Z,30.80
2023-02-12T09:52:31.160Z,29.48
2023-02-12T09:55:00.122Z,30.58
2023-02-12T09:57:33.699Z,27.98
2023-02-12T10:00:32.248Z,28.38
2023-02-12T10:03:05.456Z,29.45
2023-02-12T10:05:43.540Z,26.08
2023-02-12T10:08:29.926Z,28.70
2023-02-12T10:11:22.067Z,27.10
2023-02-12T10:14:04.576Z,30.00
2023-02-12T10:16:57.585Z,30.23
2023-02-12T10:19:43.887Z,28.08
2023-02-12T10:22:26.408Z,31.95
2023-02-12T10:24:56.920Z,29.92
2023-02-12T10:27:41.761Z,29.10
2023-02-12T10:30:50.420Z,29.15
2023-02-12T10:33:30.284Z,29.60
2023-02-12T10:36:22.782Z,27.58
2023-02-12T10:38:56.269Z,26.67
2023-02-12T10:41:27.472Z,27.73
2023-02-12T10:43:55.919Z,26.30
2023-02-12T10:46:23.940Z,26.30
2023-02-12T10:48:54.530Z,26.75
2023-02-12T10:51:34.426Z,25.80
2023-02-12T10:54:42.265Z,24.13
2023-02-12T10:57:18.525Z,27.17
2023-02-12T10:59:49.321Z,28.08
2023-02-12T11:02:25.542Z,27.48
2023-02-12T11:04:55.925Z,26.70
2023-02-12T11:07:25.339Z,26.50
2023-02-12T11:09:56.173Z,25.83
2023-02-12T11:12:38.523Z,25.20
2023-02-12T11:15:14.166Z,25.08
2023-02-12T11:17:55.770Z,28.02
2023-02-12T11:20:28.370Z,26.20
2023-02-12T11:23:01.963Z,27.65
2023-02-12T11:25:33.650Z,24.65
2023-02-12T11:28:17.609Z,24.23
2023-02-12T11:30:52.155Z,23.40
2023-02-12T11:33:23.102Z,24.75
2023-02-12T11:36:24.222Z,25.60
2023-02-12T11:38:54.590Z,24.80
2023-02-12T11:41:38.108Z,26.20
2023-02-12T11:44:12.836Z,28.80
2023-02-12T11:46:52.414Z,25.92
2023-02-12T11:49:32.180Z,27.27
2023-02-12T11:52:03.278Z,25.92
2023-02-12T11:54:39.275Z,28.67
2023-02-12T11:57:08.122Z,27.45
2023-02-12T11:59:47.219Z,27.58
2023-02-12T12:02:23.740Z,28.38
2023-02-12T12:04:56.552Z,29.73
2023-02-12T12:07:32.376Z,28.42
2023-02-12T12:10:08.362Z,29.08
2023-02-12T12:12:48.660Z,25.90
2023-02-12T12:15:47.969Z,26.52
2023-02-12T12:19:00.729Z,26.80
2023-02-12T12:21:31.499Z,28.63
2023-02-12T12:24:27.101Z,24.08
2023-02-12T12:27:40.613Z,24.10
2023-02-12T12:30:19.960Z,23.02
2023-02-12T12:32:51.950Z,23.98
2023-02-12T12:35:29.790Z,25.52
2023-02-12T12:38:39.777Z,24.17
2023-02-12T12:41:28.413Z,26.13
2023-02-12T12:44:05.201Z,26.13
2023-02-12T12:47:05.492Z,26.77
2023-02-12T12:49:46.514Z,26.88
2023-02-12T12:52:20.831Z,27.05
2023-02-12T12:54:57.602Z,29.83
2023-02-12T12:57:34.745Z,30.95
2023-02-12T13:00:28.552Z,30.08
2023-02-12T13:03:14.941Z,30.98
2023-02-12T13:06:04.586Z,30.90
2023-02-12T13:08:54.803Z,31.70
2023-02-12T13:11:42.366Z,31.55
2023-02-12T13:14:10.594Z,33.53
2023-02-12T13:16:50.087Z,30.70
2023-02-12T13:19:33.538Z,29.98
2023-02-12T13:22:11.111Z,27.08
2023-02-12T13:24:48.075Z,24.70
2023-02-12T13:27:25.936Z,22.00
2023-02-12T13:30:07.539Z,21.58
2023-02-12T13:32:43.442Z,16.17
2023-02-12T13:35:20.581Z,12.45
2023-02-12T13:37:53.580Z,11.00
2023-02-12T13:40:28.147Z,11.40
2023-02-12T13:43:11.776Z,12.25
2023-02-12T14:18:37.889Z,12.85
2023-02-12T14:21:12.280Z,13.20
2023-02-12T14:23:46.145Z,11.68
2023-02-12T14:26:17.221Z,11.77
2023-02-12T14:28:54.955Z,11.63
2023-02-12T14:31:34.837Z,13.07
2023-02-12T14:34:05.555Z,14.02
2023-02-12T14:36:33.723Z,13.65
2023-02-12T14:39:19.531Z,13.48
2023-02-12T14:41:50.329Z,13.60
2023-02-12T14:44:18.164Z,13.10
2023-02-12T14:46:52.114Z,13.48
2023-02-12T14:49:39.897Z,15.15
2023-02-12T14:52:27.406Z,13.77
2023-02-12T14:55:02.993Z,13.60
2023-02-12T14:57:37.885Z,14.23
2023-02-12T15:00:38.645Z,14.63
2023-02-12T15:03:52.629Z,17.38
2023-02-12T15:06:27.970Z,14.88
2023-02-12T15:09:03.149Z,15.50
2023-02-12T15:11:33.909Z,16.65
2023-02-12T15:14:27.273Z,17.80
2023-02-12T15:17:10.289Z,16.83
2023-02-12T15:19:43.767Z,15.25
2023-02-12T15:22:26.497Z,16.60
2023-02-12T15:24:54.788Z,17.63
2023-02-12T15:27:22.821Z,14.25
2023-02-12T15:29:54.643Z,15.45
2023-02-12T15:32:27.464Z,16.13
2023-02-12T15:34:56.813Z,15.48
2023-02-12T15:37:31.719Z,14.93
2023-02-12T15:40:04.007Z,15.20
2023-02-12T15:42:35.536Z,16.17
2023-02-12T15:45:12.755Z,14.38
2023-02-12T15:47:41.954Z,13.93
2023-02-12T15:50:16.730Z,14.38
2023-02-12T15:52:47.882Z,13.40
2023-02-12T15:55:28.859Z,14.52
2023-02-12T15:58:00.547Z,14.82
2023-02-12T16:00:48.080Z,14.13
2023-02-12T16:03:27.222Z,15.45
2023-02-12T16:06:02.230Z,14.65
2023-02-12T16:08:33.872Z,14.07
2023-02-12T16:11:13.926Z,14.88
2023-02-12T16:13:48.690Z,13.60
2023-02-12T16:16:23.678Z,14.10
2023-02-12T16:19:22.223Z,13.85
2023-02-12T16:22:12.912Z,13.13
2023-02-12T16:24:47.904Z,14.40
2023-02-12T16:27:16.177Z,14.25
2023-02-12T16:29:52.937Z,14.02
2023-02-12T16:32:39.643Z,14.63
2023-02-12T16:35:25.711Z,14.35
2023-02-12T16:38:00.604Z,14.10
2023-02-12T16:40:32.604Z,13.48
2023-02-12T16:43:23.036Z,14.25
2023-02-12T16:45:51.793Z,15.60
2023-02-12T16:48:25.335Z,14.07
2023-02-12T16:50:58.811Z,17.67
2023-02-12T16:56:04.820Z,18.55
2023-02-12T16:58:33.293Z,17.55
2023-02-12T17:01:04.645Z,17.60
2023-02-12T17:03:34.799Z,18.00
2023-02-12T17:06:02.774Z,15.45
2023-02-12T17:08:31.114Z,14.05
2023-02-12T17:10:59.023Z,14.55
2023-02-12T17:13:27.244Z,15.18
2023-02-12T17:15:58.359Z,14.00
2023-02-12T17:18:27.535Z,15.38
2023-02-12T17:20:58.862Z,13.50
2023-02-12T17:23:27.533Z,14.48
2023-02-12T17:25:55.888Z,14.15
2023-02-12T17:28:25.398Z,12.60
2023-02-12T17:30:54.157Z,10.95
2023-02-12T17:33:22.895Z,12.32
2023-02-12T17:35:50.899Z,12.75
2023-02-12T17:38:19.236Z,11.70
2023-02-12T17:40:47.215Z,10.35
2023-02-12T17:43:15.412Z,10.80
2023-02-12T17:45:44.270Z,10.57
2023-02-12T17:48:14.082Z,11.77
2023-02-12T17:50:42.597Z,12.65
2023-02-12T17:53:11.758Z,11.65
2023-02-12T17:55:41.175Z,9.82
2023-02-12T17:58:09.606Z,11.02
2023-02-12T18:00:37.550Z,11.68
2023-02-12T18:03:05.835Z,15.30
2023-02-12T18:05:33.973Z,15.43
2023-02-12T18:08:03.914Z,14.20
2023-02-12T18:10:31.862Z,11.13
2023-02-12T18:13:00.273Z,11.02
2023-02-12T18:15:28.202Z,10.05
2023-02-12T18:17:56.476Z,10.65
2023-02-12T18:20:24.412Z,9.93
2023-02-12T18:22:52.708Z,9.70
2023-02-12T18:25:20.662Z,9.90
2023-02-12T18:27:48.968Z,9.32
2023-02-12T18:30:17.047Z,10.40
2023-02-12T18:32:45.342Z,10.18
2023-02-12T18:35:14.023Z,10.38
2023-02-12T18:37:43.441Z,10.30
2023-02-12T18:40:12.364Z,10.55
2023-02-12T18:42:40.744Z,9.65
2023-02-12T18:45:09.171Z,9.57
2023-02-12T18:47:37.671Z,10.55
2023-02-12T18:50:06.461Z,9.60
2023-02-12T18:52:34.856Z,12.38
2023-02-12T18:55:02.761Z,9.32
2023-02-12T18:57:31.302Z,9.95
2023-02-12T18:59:59.171Z,9.30
2023-02-12T19:02:27.717Z,9.63
2023-02-12T19:04:55.568Z,9.02
2023-02-12T19:07:23.724Z,9.68
2023-02-12T19:09:53.183Z,10.23
2023-02-12T19:12:21.431Z,9.60
2023-02-12T19:14:49.282Z,9.43
2023-02-12T19:17:17.471Z,9.60
2023-02-12T19:19:45.234Z,8.70
2023-02-12T19:22:13.417Z,10.68
2023-02-12T19:24:46.989Z,9.43
2023-02-12T19:27:15.677Z,9.00
2023-02-12T19:29:43.817Z,9.27
2023-02-12T19:32:11.917Z,9.27
2023-02-12T19:34:39.938Z,9.25
2023-02-12T19:37:10.993Z,9.93
2023-02-12T19:39:41.680Z,10.05
2023-02-12T19:42:11.072Z,9.18
2023-02-12T19:44:41.151Z,8.73
2023-02-12T19:47:09.539Z,9.32
2023-02-12T19:49:38.330Z,9.65
2023-02-12T19:52:06.482Z,8.45
2023-02-12T19:54:34.902Z,8.52
2023-02-12T19:57:08.762Z,8.18
2023-02-12T19:59:37.105Z,8.20
2023-02-12T20:02:05.285Z,9.07
2023-02-12T20:04:34.065Z,8.80
2023-02-12T20:07:02.281Z,8.45
2023-02-12T20:09:30.295Z,7.85
2023-02-12T20:11:59.827Z,9.38
2023-02-12T20:14:28.262Z,9.45
2023-02-12T20:16:58.745Z,8.85
2023-02-12T20:19:32.354Z,10.20
2023-02-12T20:22:02.016Z,7.85
2023-02-12T20:24:32.343Z,8.27
2023-02-12T20:27:03.429Z,9.38
2023-02-12T20:29:31.655Z,9.07
2023-02-12T20:32:00.150Z,9.35
2023-02-12T20:34:28.285Z,9.07
2023-02-12T20:36:56.616Z,9.48
2023-02-12T20:39:24.911Z,9.68
2023-02-12T20:41:53.167Z,10.40
2023-02-12T20:44:22.420Z,9.88
2023-02-12T20:46:56.392Z,10.93
2023-02-12T20:49:25.603Z,10.88
2023-02-12T20:51:54.245Z,10.15
2023-02-12T20:54:22.477Z,9.60
2023-02-12T20:56:51.178Z,10.13
2023-02-12T20:59:19.275Z,9.80
2023-02-12T21:01:48.441Z,8.25
2023-02-12T21:04:19.538Z,8.45
2023-02-12T21:06:48.763Z,10.10
2023-02-12T21:09:17.377Z,8.85
2023-02-12T21:11:46.031Z,10.40
2023-02-12T21:14:24.196Z,9.63
2023-02-12T21:16:55.457Z,8.90
2023-02-12T21:19:24.452Z,9.55
2023-02-12T21:21:53.074Z,8.63
2023-02-12T21:24:25.774Z,10.05
2023-02-12T21:26:54.950Z,8.45
2023-02-12T21:29:23.563Z,9.68
2023-02-12T21:31:51.879Z,8.88
2023-02-12T21:34:22.263Z,8.35
2023-02-12T21:36:53.210Z,9.18
2023-02-12T21:39:27.573Z,8.15
2023-02-12T21:42:00.390Z,8.65
2023-02-12T21:44:29.654Z,9.30
2023-02-12T21:46:58.810Z,9.13
2023-02-12T21:49:28.264Z,9.30
2023-02-12T21:52:06.074Z,8.23
2023-02-12T21:54:34.164Z,8.57
2023-02-12T21:57:02.176Z,8.38
2023-02-12T21:59:32.092Z,8.98
2023-02-12T22:02:00.916Z,8.05
2023-02-12T22:04:28.777Z,8.35
2023-02-12T22:06:58.207Z,8.57
2023-02-12T22:09:26.146Z,8.68
2023-02-12T22:11:54.494Z,8.43
2023-02-12T22:14:22.999Z,9.15
2023-02-12T22:16:51.319Z,9.20
2023-02-12T22:19:19.161Z,9.10
2023-02-12T22:21:51.726Z,9.65
2023-02-12T22:24:20.827Z,10.02
2023-02-12T22:26:49.127Z,9.38
2023-02-12T22:29:17.248Z,8.30
2023-02-12T22:31:46.772Z,8.48
2023-02-12T22:34:17.694Z,9.15
2023-02-12T22:36:46.473Z,8.30
2023-02-12T22:39:15.003Z,9.02
2023-02-12T22:41:43.342Z,8.57
2023-02-12T22:44:12.858Z,8.57
2023-02-12T22:46:43.274Z,8.32
2023-02-12T22:49:11.492Z,8.60
2023-02-12T22:51:39.969Z,8.02
2023-02-12T22:54:12.349Z,8.63
2023-02-12T22:56:41.240Z,7.97
2023-02-12T22:59:11.559Z,7.75
2023-02-12T23:01:40.073Z,7.85
2023-02-12T23:04:08.367Z,8.35
2023-02-12T23:06:36.831Z,9.35
2023-02-12T23:09:05.357Z,7.40
2023-02-12T23:11:34.043Z,8.35
2023-02-12T23:14:02.009Z,8.18
2023-02-12T23:16:30.327Z,8.45
2023-02-12T23:19:00.270Z,8.85
2023-02-12T23:21:30.988Z,8.90
2023-02-12T23:23:59.371Z,8.48
2023-02-12T23:26:28.976Z,9.13
2023-02-12T23:28:57.501Z,9.27
2023-02-12T23:31:26.186Z,8.40
2023-02-12T23:33:54.239Z,9.45
2023-02-12T23:36:22.544Z,8.13
2023-02-12T23:38:50.652Z,8.32
2023-02-12T23:41:19.250Z,7.25
2023-02-12T23:43:47.181Z,7.20
2023-02-12T23:46:15.605Z,8.13
2023-02-12T23:48:44.804Z,7.75
2023-02-12T23:51:13.091Z,7.03
2023-02-12T23:53:41.022Z,8.40
2023-02-12T23:56:09.275Z,6.90
2023-02-12T23:58:37.132Z,8.07
